createdAt,value
2019-05-29T00:00:36.665Z,11.50
2019-05-29T00:03:06.300Z,11.40
2019-05-29T00:05:35.031Z,11.50
2019-05-29T00:08:03.668Z,11.60
2019-05-29T00:10:32.306Z,11.60
2019-05-29T00:13:00.865Z,11.60
2019-05-29T00:15:29.477Z,11.50
2019-05-29T00:17:58.123Z,11.50
2019-05-29T00:20:26.677Z,11.50
2019-05-29T00:22:55.289Z,11.40
2019-05-29T00:25:23.977Z,11.40
2019-05-29T00:27:52.517Z,11.30
2019-05-29T00:30:21.144Z,11.40
2019-05-29T00:32:50.186Z,11.40
2019-05-29T00:35:18.870Z,11.40
2019-05-29T00:37:49.073Z,11.40
2019-05-29T00:40:18.088Z,11.40
2019-05-29T00:42:46.976Z,11.50
2019-05-29T00:45:15.899Z,11.50
2019-05-29T00:47:44.992Z,11.50
2019-05-29T00:50:14.144Z,11.50
2019-05-29T00:52:42.866Z,11.50
2019-05-29T00:55:12.645Z,11.40
2019-05-29T00:57:41.275Z,11.40
2019-05-29T01:00:11.186Z,11.30
2019-05-29T01:02:39.902Z,11.20
2019-05-29T01:05:09.714Z,11.20
2019-05-29T01:07:38.497Z,11.30
2019-05-29T01:10:07.581Z,11.40
2019-05-29T01:12:36.186Z,11.30
2019-05-29T01:15:08.116Z,11.30
2019-05-29T01:17:36.758Z,11.30
2019-05-29T01:20:06.299Z,11.30
2019-05-29T01:22:34.892Z,11.30
2019-05-29T01:25:03.575Z,11.40
2019-05-29T01:27:32.187Z,11.50
2019-05-29T01:30:21.303Z,11.40
2019-05-29T01:32:50.307Z,11.50
2019-05-29T01:35:20.052Z,11.40
2019-05-29T01:37:49.179Z,11.50
2019-05-29T01:40:23.153Z,11.40
2019-05-29T01:42:50.044Z,11.40
2019-05-29T01:45:19.482Z,11.40
2019-05-29T01:47:48.244Z,11.40
2019-05-29T01:50:17.736Z,11.50
2019-05-29T01:52:46.658Z,11.50
2019-05-29T01:55:15.727Z,11.50
2019-05-29T01:57:44.800Z,11.40
2019-05-29T02:00:13.536Z,11.40
2019-05-29T02:02:42.084Z,11.40
2019-05-29T02:05:10.703Z,11.40
2019-05-29T02:07:39.341Z,11.30
2019-05-29T02:10:08.151Z,11.30
2019-05-29T02:12:36.688Z,11.30
2019-05-29T02:15:22.692Z,11.30
2019-05-29T02:17:37.446Z,11.20
2019-05-29T02:20:09.628Z,11.10
2019-05-29T02:22:57.629Z,11.10
2019-05-29T02:25:26.377Z,11.00
2019-05-29T02:27:55.361Z,10.90
2019-05-29T02:30:27.819Z,10.90
2019-05-29T02:32:54.544Z,10.90
2019-05-29T02:35:24.807Z,10.90
2019-05-29T02:37:53.452Z,10.90
2019-05-29T02:40:24.132Z,11.00
2019-05-29T02:42:52.681Z,10.90
2019-05-29T02:45:23.831Z,10.90
2019-05-29T02:47:52.325Z,10.90
2019-05-29T02:50:22.196Z,10.90
2019-05-29T02:52:51.663Z,10.80
2019-05-29T02:55:20.776Z,10.80
2019-05-29T02:57:49.731Z,10.80
2019-05-29T03:00:23.264Z,10.80
2019-05-29T03:02:51.628Z,10.90
2019-05-29T03:05:21.718Z,11.00
2019-05-29T03:07:50.588Z,11.10
2019-05-29T03:10:19.617Z,11.10
2019-05-29T03:12:48.299Z,11.10
2019-05-29T03:15:17.110Z,11.30
2019-05-29T03:17:45.649Z,11.20
2019-05-29T03:20:14.264Z,11.20
2019-05-29T03:22:42.912Z,11.10
2019-05-29T03:25:11.594Z,11.10
2019-05-29T03:27:40.206Z,11.10
2019-05-29T03:30:08.924Z,11.00
2019-05-29T03:32:46.293Z,11.00
2019-05-29T03:35:07.850Z,11.00
2019-05-29T03:37:38.486Z,11.10
2019-05-29T03:40:06.937Z,11.10
2019-05-29T03:42:35.566Z,11.00
2019-05-29T03:45:23.519Z,11.00
2019-05-29T03:47:52.156Z,11.00
2019-05-29T03:50:20.787Z,11.00
2019-05-29T03:52:49.476Z,11.10
2019-05-29T03:55:18.136Z,11.20
